createdAt,value
2023-11-17T00:00:39.525Z,98837.69
2023-11-17T00:03:30.790Z,98841.84
2023-11-17T00:06:00.295Z,98832.53
2023-11-17T00:08:30.331Z,98823.75
2023-11-17T00:10:59.326Z,98817.56
2023-11-17T00:13:28.168Z,98812.06
2023-11-17T00:15:57.404Z,98804.25
2023-11-17T00:18:26.168Z,98798.03
2023-11-17T00:20:57.234Z,98792.78
2023-11-17T00:23:28.586Z,98795.81
2023-11-17T00:25:57.788Z,98798.50
2023-11-17T00:28:26.630Z,98808.81
2023-11-17T00:30:56.833Z,98806.84
2023-11-17T00:33:25.510Z,98808.41
2023-11-17T00:35:54.407Z,98801.81
2023-11-17T00:38:25.797Z,98789.91
2023-11-17T00:40:54.799Z,98772.47
2023-11-17T00:43:23.530Z,98772.84
2023-11-17T00:45:53.949Z,98768.31
2023-11-17T00:48:23.328Z,98771.50
2023-11-17T00:50:53.626Z,98775.47
2023-11-17T00:53:24.312Z,98768.41
2023-11-17T00:55:54.755Z,98767.88
2023-11-17T00:58:25.498Z,98749.22
2023-11-17T01:00:54.757Z,98750.69
2023-11-17T01:03:23.454Z,98748.03
2023-11-17T01:05:53.897Z,98752.53
2023-11-17T01:08:22.509Z,98740.88
2023-11-17T01:10:51.778Z,98742.47
2023-11-17T01:13:23.215Z,98734.25
2023-11-17T01:15:52.240Z,98728.22
2023-11-17T01:18:21.247Z,98722.03
2023-11-17T01:20:50.232Z,98721.47
2023-11-17T01:23:19.358Z,98715.69
2023-11-17T01:25:48.341Z,98705.13
2023-11-17T01:28:18.623Z,98700.88
2023-11-17T01:30:49.197Z,98693.22
2023-11-17T01:33:17.838Z,98690.13
2023-11-17T01:35:47.139Z,98684.66
2023-11-17T01:38:15.808Z,98680.81
2023-11-17T01:40:44.761Z,98691.66
2023-11-17T01:43:17.528Z,98683.75
2023-11-17T01:45:46.717Z,98679.19
2023-11-17T01:48:19.612Z,98676.81
2023-11-17T01:50:49.711Z,98671.34
2023-11-17T01:53:19.376Z,98662.69
2023-11-17T01:55:48.824Z,98665.41
2023-11-17T01:58:18.170Z,98665.56
2023-11-17T02:00:47.124Z,98663.63
2023-11-17T02:03:18.562Z,98654.28
2023-11-17T02:05:52.970Z,98644.38
2023-11-17T02:08:29.328Z,98642.31
2023-11-17T02:11:06.962Z,98635.88
2023-11-17T02:13:41.126Z,98632.13
2023-11-17T02:16:12.837Z,98638.19
2023-11-17T02:18:51.217Z,98629.94
2023-11-17T02:21:30.366Z,98633.78
2023-11-17T02:24:00.776Z,98631.06
2023-11-17T02:26:43.704Z,98625.41
2023-11-17T02:29:38.915Z,98627.81
2023-11-17T02:32:16.966Z,98624.50
2023-11-17T02:34:46.860Z,98622.91
2023-11-17T02:37:17.107Z,98627.59
2023-11-17T02:39:47.120Z,98627.56
2023-11-17T02:42:25.050Z,98615.88
2023-11-17T02:44:53.691Z,98619.53
2023-11-17T02:47:29.276Z,98609.44
2023-11-17T02:50:02.200Z,98599.72
2023-11-17T02:52:44.180Z,98609.00
2023-11-17T02:55:16.008Z,98611.97
2023-11-17T02:57:46.645Z,98613.63
2023-11-17T03:00:16.744Z,98607.94
2023-11-17T03:02:49.009Z,98610.78
2023-11-17T03:05:18.505Z,98605.41
2023-11-17T03:07:49.428Z,98607.66
2023-11-17T03:10:19.965Z,98612.81
2023-11-17T03:12:51.311Z,98613.72
2023-11-17T03:15:20.110Z,98611.16
2023-11-17T03:17:53.230Z,98613.28
2023-11-17T03:20:22.158Z,98616.72
2023-11-17T03:22:51.021Z,98619.59
2023-11-17T03:25:19.729Z,98624.72
2023-11-17T03:27:49.660Z,98628.41
2023-11-17T03:30:19.381Z,98623.44
2023-11-17T03:32:48.697Z,98623.44
2023-11-17T03:35:22.135Z,98624.16
2023-11-17T03:37:52.128Z,98627.06
2023-11-17T03:40:21.005Z,98631.09
2023-11-17T03:42:50.014Z,98639.88
2023-11-17T03:45:20.654Z,98639.53
2023-11-17T03:47:49.695Z,98652.38
2023-11-17T03:50:21.320Z,98656.31
2023-11-17T03:52:52.735Z,98660.63
2023-11-17T03:55:22.958Z,98659.06
2023-11-17T03:57:52.116Z,98646.06
2023-11-17T04:00:23.910Z,98633.38
2023-11-17T04:02:53.610Z,98626.88
2023-11-17T04:05:24.196Z,98623.19
2023-11-17T04:07:56.621Z,98613.97
2023-11-17T04:10:26.142Z,98606.50
2023-11-17T04:12:56.779Z,98610.03
2023-11-17T04:15:25.688Z,98611.97
2023-11-17T04:17:57.695Z,98609.63
2023-11-17T04:20:28.560Z,98610.66
2023-11-17T04:22:57.842Z,98620.03
2023-11-17T04:25:26.598Z,98624.13
2023-11-17T04:27:57.854Z,98618.88
2023-11-17T04:30:27.279Z,98613.97
2023-11-17T04:32:56.409Z,98615.91
2023-11-17T04:35:25.081Z,98624.00
2023-11-17T04:37:55.994Z,98616.38
2023-11-17T04:40:24.752Z,98613.00
2023-11-17T04:42:53.814Z,98610.31
2023-11-17T04:45:22.755Z,98606.97
2023-11-17T04:47:51.877Z,98596.09
2023-11-17T04:50:21.276Z,98602.44
2023-11-17T04:52:50.448Z,98592.03
2023-11-17T04:55:20.616Z,98591.19
2023-11-17T04:57:49.724Z,98588.13
2023-11-17T05:00:18.816Z,98599.41
2023-11-17T05:02:48.403Z,98611.06
2023-11-17T05:05:17.763Z,98625.56
2023-11-17T05:07:46.807Z,98622.09
2023-11-17T05:10:16.650Z,98618.19
2023-11-17T05:12:47.579Z,98615.91
2023-11-17T05:15:16.946Z,98619.38
2023-11-17T05:17:46.142Z,98630.22
2023-11-17T05:20:16.806Z,98638.47
2023-11-17T05:22:47.544Z,98635.03
2023-11-17T05:25:17.950Z,98622.06
2023-11-17T05:27:50.335Z,98619.91
2023-11-17T05:30:20.000Z,98606.63
2023-11-17T05:32:50.292Z,98605.59
2023-11-17T05:35:19.397Z,98602.06
2023-11-17T05:37:48.397Z,98603.03
2023-11-17T05:40:17.620Z,98606.47
2023-11-17T05:42:48.020Z,98611.91
2023-11-17T05:45:17.065Z,98609.47
2023-11-17T05:47:46.116Z,98610.91
2023-11-17T05:50:15.314Z,98605.50
2023-11-17T05:52:45.034Z,98605.84
2023-11-17T05:55:18.186Z,98601.38
2023-11-17T05:57:49.470Z,98602.59
2023-11-17T06:00:20.698Z,98595.31
2023-11-17T06:02:52.178Z,98593.53
2023-11-17T06:05:21.110Z,98586.91
2023-11-17T06:07:50.131Z,98576.34
2023-11-17T06:10:19.032Z,98559.53
2023-11-17T06:12:51.349Z,98547.81
2023-11-17T06:15:28.377Z,98541.22
2023-11-17T06:17:57.822Z,98541.72
2023-11-17T06:20:27.100Z,98548.06
2023-11-17T06:22:56.125Z,98528.13
2023-11-17T06:25:27.183Z,98512.66
2023-11-17T06:27:57.711Z,98515.44
2023-11-17T06:30:26.610Z,98526.50
2023-11-17T06:32:55.648Z,98530.13
2023-11-17T06:35:24.418Z,98522.84
2023-11-17T06:37:54.640Z,98520.97
2023-11-17T06:40:23.742Z,98522.69
2023-11-17T06:42:52.863Z,98535.16
2023-11-17T06:45:22.950Z,98557.00
2023-11-17T06:47:52.895Z,98568.38
2023-11-17T06:50:23.322Z,98563.56
2023-11-17T06:52:52.049Z,98562.78
2023-11-17T06:55:21.480Z,98561.28
2023-11-17T06:57:50.169Z,98557.63
2023-11-17T07:00:21.049Z,98560.34
2023-11-17T07:02:51.165Z,98559.72
2023-11-17T07:05:20.943Z,98567.28
2023-11-17T07:07:50.525Z,98575.69
2023-11-17T07:10:20.161Z,98569.28
2023-11-17T07:12:50.500Z,98555.84
2023-11-17T07:15:19.785Z,98547.94
2023-11-17T07:17:53.372Z,98547.44
2023-11-17T07:20:23.807Z,98535.00
2023-11-17T07:22:53.524Z,98541.00
2023-11-17T07:25:23.714Z,98545.16
2023-11-17T07:27:52.441Z,98537.81
2023-11-17T07:30:21.567Z,98532.47
2023-11-17T07:32:51.947Z,98528.47
2023-11-17T07:35:21.121Z,98524.25
2023-11-17T07:37:50.225Z,98509.91
2023-11-17T07:40:21.852Z,98499.16
2023-11-17T07:42:51.221Z,98493.41
2023-11-17T07:45:20.363Z,98493.75
2023-11-17T07:47:49.673Z,98510.47
2023-11-17T07:50:22.998Z,98514.38
2023-11-17T07:52:51.627Z,98513.44
2023-11-17T07:55:24.231Z,98507.53
2023-11-17T07:57:57.425Z,98517.00
2023-11-17T08:00:29.376Z,98520.03
2023-11-17T08:02:58.340Z,98519.75
2023-11-17T08:05:29.263Z,98510.94
2023-11-17T08:07:58.098Z,98511.63
2023-11-17T08:10:30.560Z,98504.16
2023-11-17T08:13:00.656Z,98495.28
2023-11-17T08:15:30.466Z,98497.91
2023-11-17T08:17:59.502Z,98501.22
2023-11-17T08:20:32.614Z,98505.56
2023-11-17T08:23:01.551Z,98513.66
2023-11-17T08:25:31.082Z,98511.72
2023-11-17T08:27:59.896Z,98512.06
2023-11-17T08:30:35.784Z,98526.50
2023-11-17T08:33:11.575Z,98519.34
2023-11-17T08:35:41.986Z,98512.53
2023-11-17T08:38:10.606Z,98520.84
2023-11-17T08:40:40.261Z,98505.59
2023-11-17T08:43:09.184Z,98513.69
2023-11-17T08:45:38.174Z,98520.31
2023-11-17T08:48:08.413Z,98529.91
2023-11-17T08:50:37.399Z,98520.00
2023-11-17T08:53:07.560Z,98533.16
2023-11-17T08:55:37.717Z,98523.56
2023-11-17T08:58:07.472Z,98524.28
2023-11-17T09:00:36.649Z,98522.94
2023-11-17T09:03:06.189Z,98525.16
2023-11-17T09:05:35.374Z,98510.69
2023-11-17T09:08:04.055Z,98498.94
2023-11-17T09:10:35.114Z,98498.00
2023-11-17T09:13:05.976Z,98482.41
2023-11-17T09:15:35.601Z,98480.84
2023-11-17T09:18:04.460Z,98481.91
2023-11-17T09:20:33.604Z,98480.09
2023-11-17T09:23:02.511Z,98472.59
2023-11-17T09:25:34.356Z,98466.97
2023-11-17T09:28:06.362Z,98466.66
2023-11-17T09:30:55.409Z,98460.31
2023-11-17T09:33:25.955Z,98457.59
2023-11-17T09:36:01.893Z,98460.66
2023-11-17T09:38:36.901Z,98464.22
2023-11-17T09:41:08.046Z,98462.88
2023-11-17T09:43:40.691Z,98463.69
2023-11-17T09:46:34.739Z,98466.00
2023-11-17T09:49:09.375Z,98465.66
2023-11-17T09:51:39.074Z,98471.44
2023-11-17T09:54:14.895Z,98462.66
2023-11-17T09:56:45.337Z,98458.19
2023-11-17T09:59:15.556Z,98450.50
2023-11-17T10:01:45.732Z,98439.22
2023-11-17T10:04:18.670Z,98436.47
2023-11-17T10:06:48.987Z,98433.75
2023-11-17T10:09:19.540Z,98439.56
2023-11-17T10:11:49.964Z,98436.94
2023-11-17T10:14:24.089Z,98439.78
2023-11-17T10:16:54.074Z,98427.28
2023-11-17T10:19:24.681Z,98428.50
2023-11-17T10:21:58.361Z,98416.72
2023-11-17T10:24:30.761Z,98414.50
2023-11-17T10:27:00.349Z,98419.50
2023-11-17T10:29:31.156Z,98419.69
2023-11-17T10:32:22.583Z,98430.38
2023-11-17T10:35:14.357Z,98440.47
2023-11-17T10:37:45.660Z,98428.72
2023-11-17T10:40:25.831Z,98435.00
2023-11-17T10:43:15.553Z,98422.13
2023-11-17T10:45:48.277Z,98418.13
2023-11-17T10:48:19.297Z,98422.53
2023-11-17T10:50:48.047Z,98416.34
2023-11-17T10:53:21.295Z,98408.88
2023-11-17T10:55:54.378Z,98393.78
2023-11-17T10:58:23.381Z,98383.56
2023-11-17T11:00:53.939Z,98380.63
2023-11-17T11:03:24.262Z,98368.41
2023-11-17T11:06:00.169Z,98359.78
2023-11-17T11:08:32.500Z,98364.16
2023-11-17T11:11:01.261Z,98368.25
2023-11-17T11:13:32.114Z,98371.19
2023-11-17T11:16:08.658Z,98369.56
2023-11-17T11:18:47.136Z,98363.34
2023-11-17T11:21:18.319Z,98382.28
2023-11-17T11:23:49.471Z,98362.16
2023-11-17T11:26:19.861Z,98353.13
2023-11-17T11:28:49.470Z,98347.63
2023-11-17T11:31:23.104Z,98344.00
2023-11-17T11:33:54.303Z,98333.31
2023-11-17T11:36:24.558Z,98334.31
2023-11-17T11:38:58.290Z,98348.94
2023-11-17T11:41:27.501Z,98340.34
2023-11-17T11:43:57.458Z,98348.31
2023-11-17T11:46:30.216Z,98338.94
2023-11-17T11:49:02.855Z,98337.50
2023-11-17T11:51:35.233Z,98338.81
2023-11-17T11:54:07.413Z,98344.03
2023-11-17T11:56:39.852Z,98356.09
2023-11-17T11:59:12.771Z,98363.81
2023-11-17T12:01:49.402Z,98342.56
2023-11-17T12:04:22.302Z,98321.38
2023-11-17T12:07:36.798Z,98334.91
2023-11-17T12:10:10.972Z,98321.78
2023-11-17T12:12:43.522Z,98331.97
2023-11-17T12:15:14.623Z,98347.69
2023-11-17T12:17:51.500Z,98357.22
2023-11-17T12:20:24.328Z,98351.75
2023-11-17T12:23:00.812Z,98351.88
2023-11-17T12:25:31.385Z,98346.78
2023-11-17T12:28:01.088Z,98361.13
2023-11-17T12:30:31.026Z,98367.69
2023-11-17T12:33:01.792Z,98373.72
2023-11-17T12:35:32.376Z,98369.19
2023-11-17T12:38:21.166Z,98345.41
2023-11-17T12:41:02.344Z,98354.31
2023-11-17T12:43:32.968Z,98367.81
2023-11-17T12:46:04.042Z,98372.59
2023-11-17T12:48:34.704Z,98373.19
2023-11-17T12:51:03.682Z,98376.34
2023-11-17T12:53:50.797Z,98365.63
2023-11-17T12:56:23.636Z,98384.75
2023-11-17T12:58:54.551Z,98374.47
2023-11-17T13:01:25.810Z,98382.28
2023-11-17T13:04:00.578Z,98363.63
2023-11-17T13:06:51.582Z,98365.00
2023-11-17T13:09:20.352Z,98369.06
2023-11-17T13:11:49.847Z,98372.59
2023-11-17T13:14:26.321Z,98364.34
2023-11-17T13:16:55.457Z,98359.94
2023-11-17T13:19:27.694Z,98358.44
2023-11-17T13:21:58.690Z,98377.47
2023-11-17T13:24:27.785Z,98373.25
2023-11-17T13:26:56.856Z,98388.50
2023-11-17T13:29:28.428Z,98388.94
2023-11-17T13:32:19.866Z,98383.31
2023-11-17T13:34:57.091Z,98399.47
2023-11-17T13:37:31.659Z,98411.59
2023-11-17T13:40:03.830Z,98415.94
2023-11-17T13:42:32.974Z,98419.25
2023-11-17T13:45:01.821Z,98414.06
2023-11-17T13:47:31.603Z,98410.34
2023-11-17T13:50:16.347Z,98419.28
2023-11-17T13:52:45.480Z,98432.47
2023-11-17T13:55:14.534Z,98425.47
2023-11-17T13:57:43.544Z,98426.00
2023-11-17T14:00:15.061Z,98444.78
2023-11-17T14:02:45.937Z,98447.63
2023-11-17T14:05:16.376Z,98444.91
2023-11-17T14:07:45.423Z,98457.41
2023-11-17T14:10:17.428Z,98443.53
2023-11-17T14:12:48.389Z,98454.13
2023-11-17T14:15:20.475Z,98449.38
2023-11-17T14:17:51.694Z,98460.94
2023-11-17T14:20:26.150Z,98468.38
2023-11-17T14:22:55.172Z,98464.47
2023-11-17T14:25:25.745Z,98468.00
2023-11-17T14:27:55.175Z,98475.00
2023-11-17T14:30:26.637Z,98476.53
2023-11-17T14:32:58.105Z,98475.19
2023-11-17T14:35:28.449Z,98494.38
2023-11-17T14:38:00.829Z,98485.78
2023-11-17T14:40:30.911Z,98498.09
2023-11-17T14:43:20.118Z,98501.63
2023-11-17T14:45:49.566Z,98507.97
2023-11-17T14:48:20.429Z,98506.44
2023-11-17T14:50:51.964Z,98528.78
2023-11-17T14:53:21.796Z,98528.63
2023-11-17T14:55:51.221Z,98544.41
2023-11-17T14:58:21.069Z,98563.88
2023-11-17T15:00:52.444Z,98563.66
2023-11-17T15:03:25.082Z,98578.59
2023-11-17T15:05:56.319Z,98583.81
2023-11-17T15:08:27.907Z,98595.06
2023-11-17T15:11:00.733Z,98591.94
2023-11-17T15:13:31.687Z,98598.69
2023-11-17T15:16:05.783Z,98582.91
2023-11-17T15:18:39.751Z,98585.63
2023-11-17T15:21:10.634Z,98591.88
2023-11-17T15:23:40.344Z,98591.47
2023-11-17T15:26:09.364Z,98596.22
2023-11-17T15:28:38.759Z,98602.41
2023-11-17T15:31:11.679Z,98596.06
2023-11-17T15:33:40.809Z,98600.06
2023-11-17T15:36:13.279Z,98607.88
2023-11-17T15:38:49.556Z,98613.31
2023-11-17T15:41:20.176Z,98612.38
2023-11-17T15:43:52.510Z,98624.28
2023-11-17T15:46:24.358Z,98617.75
2023-11-17T15:48:58.499Z,98622.59
2023-11-17T15:51:49.203Z,98633.91
2023-11-17T15:54:18.528Z,98627.13
2023-11-17T15:56:47.785Z,98652.09
2023-11-17T15:59:17.667Z,98645.72
2023-11-17T16:01:49.973Z,98665.22
2023-11-17T16:04:19.588Z,98677.91
2023-11-17T16:06:51.796Z,98678.69
2023-11-17T16:09:29.648Z,98676.72
2023-11-17T16:12:00.625Z,98672.38
2023-11-17T16:14:30.324Z,98685.03
2023-11-17T16:17:01.150Z,98681.53
2023-11-17T16:19:30.550Z,98692.13
2023-11-17T16:22:02.137Z,98714.97
2023-11-17T16:24:32.185Z,98702.81
2023-11-17T16:27:01.320Z,98729.38
2023-11-17T16:29:31.974Z,98751.91
2023-11-17T16:32:01.043Z,98754.56
2023-11-17T16:34:30.555Z,98751.19
2023-11-17T16:37:01.001Z,98753.81
2023-11-17T16:39:30.122Z,98758.06
2023-11-17T16:41:59.384Z,98778.06
2023-11-17T16:44:34.283Z,98766.81
2023-11-17T16:47:04.840Z,98790.25
2023-11-17T16:49:36.064Z,98772.81
2023-11-17T16:52:07.371Z,98777.13
2023-11-17T16:54:38.904Z,98789.41
2023-11-17T16:57:09.867Z,98793.66
2023-11-17T16:59:41.864Z,98787.63
2023-11-17T17:02:14.927Z,98787.66
2023-11-17T17:04:46.540Z,98788.56
2023-11-17T17:07:16.983Z,98794.56
2023-11-17T17:09:45.929Z,98809.38
2023-11-17T17:12:17.908Z,98803.25
2023-11-17T17:14:46.903Z,98810.19
2023-11-17T17:17:15.932Z,98815.41
2023-11-17T17:19:46.203Z,98818.78
2023-11-17T17:22:17.737Z,98819.69
2023-11-17T17:24:47.005Z,98820.59
2023-11-17T17:27:16.210Z,98829.31
2023-11-17T17:29:45.941Z,98837.03
2023-11-17T17:32:16.229Z,98844.91
2023-11-17T17:34:45.407Z,98828.38
2023-11-17T17:37:15.110Z,98838.81
2023-11-17T17:39:45.627Z,98859.63
2023-11-17T17:42:17.520Z,98844.03
2023-11-17T17:44:50.868Z,98865.66
2023-11-17T17:47:20.637Z,98853.56
2023-11-17T17:49:49.858Z,98851.84
2023-11-17T17:52:18.569Z,98852.63
2023-11-17T17:54:49.082Z,98855.28
2023-11-17T17:57:17.704Z,98875.22
2023-11-17T17:59:46.722Z,98877.81
2023-11-17T18:02:16.220Z,98878.69
2023-11-17T18:04:46.718Z,98875.19
2023-11-17T18:07:15.528Z,98866.56
2023-11-17T18:09:44.634Z,98876.09
2023-11-17T18:12:16.000Z,98883.00
2023-11-17T18:14:46.489Z,98902.94
2023-11-17T18:17:16.455Z,98898.59
2023-11-17T18:19:45.751Z,98902.94
2023-11-17T18:22:14.528Z,98914.19
2023-11-17T18:24:44.578Z,98909.88
2023-11-17T18:27:15.976Z,98906.41
2023-11-17T18:29:44.937Z,98903.81
2023-11-17T18:32:35.836Z,98922.88
2023-11-17T18:35:12.952Z,98918.56
2023-11-17T18:37:44.447Z,98928.06
2023-11-17T18:40:17.643Z,98925.44
2023-11-17T18:42:48.179Z,98917.63
2023-11-17T18:45:17.360Z,98918.53
2023-11-17T18:47:46.439Z,98918.56
2023-11-17T18:50:16.273Z,98921.09
2023-11-17T18:52:44.965Z,98927.19
2023-11-17T18:55:15.120Z,98931.53
2023-11-17T18:57:44.280Z,98915.94
2023-11-17T19:00:21.533Z,98931.53
2023-11-17T19:02:52.433Z,98924.59
2023-11-17T19:05:22.935Z,98933.25
2023-11-17T19:07:53.010Z,98922.00
2023-11-17T19:10:23.173Z,98924.56
2023-11-17T19:12:52.787Z,98924.56
2023-11-17T19:15:23.575Z,98936.72
2023-11-17T19:17:52.323Z,98941.91
2023-11-17T19:20:23.982Z,98943.63
2023-11-17T19:22:55.440Z,98938.44
2023-11-17T19:25:25.360Z,98947.94
2023-11-17T19:27:54.087Z,98944.50
2023-11-17T19:30:24.556Z,98957.50
2023-11-17T19:32:53.736Z,98960.97
2023-11-17T19:35:23.420Z,98950.50
2023-11-17T19:37:52.440Z,98974.84
2023-11-17T19:40:21.515Z,98962.72
2023-11-17T19:42:50.539Z,98967.91
2023-11-17T19:45:21.727Z,98974.81
2023-11-17T19:47:51.944Z,98972.22
2023-11-17T19:50:22.720Z,98960.97
2023-11-17T19:52:52.003Z,98988.66
2023-11-17T19:55:24.114Z,98992.13
2023-11-17T19:57:54.240Z,98990.41
2023-11-17T20:00:25.980Z,98988.66
2023-11-17T20:02:57.722Z,98995.59
2023-11-17T20:05:29.537Z,99017.22
2023-11-17T20:08:00.327Z,99002.50
2023-11-17T20:10:31.059Z,98999.91
2023-11-17T20:13:01.600Z,98992.97
2023-11-17T20:15:32.002Z,99036.16
2023-11-17T20:18:05.545Z,99014.56
2023-11-17T20:20:34.586Z,99034.34
2023-11-17T20:23:03.300Z,99020.50
2023-11-17T20:25:32.396Z,99007.56
2023-11-17T20:28:01.635Z,99018.81
2023-11-17T20:30:30.654Z,99018.75
2023-11-17T20:33:00.142Z,99025.66
2023-11-17T20:35:30.623Z,99017.88
2023-11-17T20:37:59.371Z,99021.34
2023-11-17T20:40:28.997Z,99031.72
2023-11-17T20:42:58.845Z,99016.19
2023-11-17T20:45:28.024Z,99018.78
2023-11-17T20:47:57.547Z,99022.25
2023-11-17T20:50:28.312Z,99025.59
2023-11-17T20:53:00.480Z,99003.13
2023-11-17T20:55:29.930Z,99021.25
2023-11-17T20:57:58.787Z,99020.25
2023-11-17T21:00:34.515Z,99032.34
2023-11-17T21:03:08.359Z,99040.09
2023-11-17T21:05:38.245Z,99031.41
2023-11-17T21:08:11.923Z,99040.94
2023-11-17T21:10:43.276Z,99047.84
2023-11-17T21:13:11.933Z,99041.75
2023-11-17T21:15:41.420Z,99047.78
2023-11-17T21:18:10.156Z,99056.38
2023-11-17T21:20:40.045Z,99036.63
2023-11-17T21:23:10.099Z,99059.94
2023-11-17T21:25:39.726Z,99058.81
2023-11-17T21:28:08.459Z,99070.13
2023-11-17T21:30:37.472Z,99061.28
2023-11-17T21:33:08.238Z,99057.75
2023-11-17T21:35:37.202Z,99078.44
2023-11-17T21:38:06.012Z,99073.22
2023-11-17T21:40:37.372Z,99076.69
2023-11-17T21:43:05.979Z,99058.56
2023-11-17T21:45:37.744Z,99072.28
2023-11-17T21:48:08.455Z,99066.25
2023-11-17T21:50:37.685Z,99081.75
2023-11-17T21:53:06.679Z,99082.66
2023-11-17T21:55:37.448Z,99071.41
2023-11-17T21:58:07.574Z,99072.28
2023-11-17T22:00:36.821Z,99068.91
2023-11-17T22:03:06.527Z,99084.25
2023-11-17T22:05:35.669Z,99086.75
2023-11-17T22:08:04.646Z,99094.50
2023-11-17T22:10:34.565Z,99092.75
2023-11-17T22:13:04.633Z,99099.50
2023-11-17T22:15:33.802Z,99104.59
2023-11-17T22:18:03.867Z,99100.34
2023-11-17T22:20:32.754Z,99079.41
2023-11-17T22:23:01.349Z,99103.72
2023-11-17T22:25:30.664Z,99097.66
2023-11-17T22:28:00.613Z,99108.25
2023-11-17T22:30:31.031Z,99108.06
2023-11-17T22:32:59.905Z,99114.09
2023-11-17T22:35:29.027Z,99122.53
2023-11-17T22:37:57.878Z,99154.19
2023-11-17T22:40:27.065Z,99139.53
2023-11-17T22:42:57.367Z,99133.56
2023-11-17T22:45:26.429Z,99144.03
2023-11-17T22:47:56.512Z,99124.97
2023-11-17T22:50:25.496Z,99122.13
2023-11-17T22:52:55.566Z,99126.53
2023-11-17T22:55:24.849Z,99140.28
2023-11-17T22:57:53.634Z,99165.66
2023-11-17T23:00:39.463Z,99140.81
2023-11-17T23:03:10.291Z,99139.72
2023-11-17T23:05:43.020Z,99157.66
2023-11-17T23:08:13.217Z,99160.22
2023-11-17T23:10:43.071Z,99135.97
2023-11-17T23:13:12.863Z,99149.72
2023-11-17T23:15:42.389Z,99136.69
2023-11-17T23:18:14.390Z,99156.34
2023-11-17T23:20:44.218Z,99153.91
2023-11-17T23:23:13.353Z,99161.44
2023-11-17T23:25:42.457Z,99167.03
2023-11-17T23:28:11.302Z,99164.13
2023-11-17T23:30:41.354Z,99152.06
2023-11-17T23:33:10.242Z,99155.31
2023-11-17T23:35:40.714Z,99145.06
2023-11-17T23:38:11.171Z,99152.88
2023-11-17T23:40:40.205Z,99150.63
2023-11-17T23:43:09.905Z,99143.72
2023-11-17T23:45:39.671Z,99154.81
2023-11-17T23:48:08.392Z,99159.06
2023-11-17T23:50:37.494Z,99163.38
2023-11-17T23:53:08.920Z,99158.28
2023-11-17T23:55:38.300Z,99163.53
2023-11-17T23:58:07.671Z,99163.59
